createdAt,value
2018-12-05T00:02:35.416Z,100848.70
2018-12-05T00:05:40.247Z,100856.80
2018-12-05T00:08:51.706Z,100862.79
2018-12-05T00:11:56.347Z,100859.67
2018-12-05T00:15:01.707Z,100869.10
2018-12-05T00:18:06.336Z,100861.41
2018-12-05T00:21:10.995Z,100866.47
2018-12-05T00:24:16.049Z,100868.20
2018-12-05T00:27:20.701Z,100866.97
2018-12-05T00:30:25.877Z,100863.84
2018-12-05T00:33:30.816Z,100868.48
2018-12-05T00:36:35.467Z,100873.12
2018-12-05T00:39:40.114Z,100864.23
2018-12-05T00:42:44.777Z,100866.00
2018-12-05T00:45:49.320Z,100871.48
2018-12-05T00:48:53.917Z,100876.38
2018-12-05T00:51:58.503Z,100864.20
2018-12-05T00:55:03.097Z,100856.86
2018-12-05T00:58:07.613Z,100849.15
2018-12-05T01:01:12.453Z,100859.83
2018-12-05T01:04:17.150Z,100875.78
2018-12-05T01:07:21.639Z,100873.58
2018-12-05T01:10:26.263Z,100876.98
2018-12-05T01:13:30.837Z,100873.63
2018-12-05T01:16:35.467Z,100880.98
2018-12-05T01:19:40.014Z,100881.22
2018-12-05T01:22:44.551Z,100882.19
2018-12-05T01:25:49.088Z,100879.14
2018-12-05T01:28:53.698Z,100875.80
2018-12-05T01:31:58.212Z,100867.75
2018-12-05T01:35:02.736Z,100865.27
2018-12-05T01:38:07.284Z,100861.28
2018-12-05T01:41:12.068Z,100855.28
2018-12-05T01:44:16.609Z,100850.80
2018-12-05T01:47:21.157Z,100863.36
2018-12-05T01:50:25.650Z,100877.47
2018-12-05T01:53:30.268Z,100875.20
2018-12-05T01:56:34.760Z,100871.16
2018-12-05T01:59:39.322Z,100877.88
2018-12-05T02:02:44.107Z,100879.89
2018-12-05T02:05:49.444Z,100877.47
2018-12-05T02:08:53.987Z,100873.12
2018-12-05T02:11:58.491Z,100870.69
2018-12-05T02:15:03.117Z,100868.91
2018-12-05T02:21:28.817Z,100872.43
2018-12-05T02:24:33.374Z,100868.68
2018-12-05T02:27:37.935Z,100855.34
2018-12-05T02:30:42.777Z,100850.03
2018-12-05T02:33:47.440Z,100844.09
2018-12-05T02:36:52.177Z,100845.62
2018-12-05T02:39:56.714Z,100846.12
2018-12-05T02:43:01.210Z,100846.00
2018-12-05T02:46:05.736Z,100842.54
2018-12-05T02:49:10.451Z,100850.01
2018-12-05T02:52:15.093Z,100843.23
2018-12-05T02:55:19.771Z,100833.03
2018-12-05T02:58:24.378Z,100821.70
2018-12-05T03:01:29.024Z,100806.91
2018-12-05T03:04:33.631Z,100805.12
2018-12-05T03:07:38.302Z,100809.19
2018-12-05T03:10:42.797Z,100824.59
2018-12-05T03:17:00.605Z,100818.86
2018-12-05T03:20:05.669Z,100817.17
2018-12-05T03:23:10.291Z,100809.84
2018-12-05T03:26:14.953Z,100817.36
2018-12-05T03:29:19.658Z,100826.63
2018-12-05T03:32:24.420Z,100832.73
2018-12-05T03:35:34.672Z,100835.22
2018-12-05T03:38:39.192Z,100839.20
2018-12-05T03:41:43.757Z,100849.38
2018-12-05T03:44:48.234Z,100846.58
2018-12-05T03:47:52.746Z,100850.84
2018-12-05T03:50:57.422Z,100856.92
2018-12-05T03:54:02.031Z,100858.85
2018-12-05T03:57:06.626Z,100858.20
2018-12-05T04:00:11.602Z,100860.33
2018-12-05T04:03:16.163Z,100852.27
2018-12-05T04:06:20.739Z,100850.08
2018-12-05T04:09:25.302Z,100861.34
2018-12-05T04:12:29.963Z,100864.39
2018-12-05T04:15:34.878Z,100860.67
2018-12-05T04:18:39.583Z,100865.53
2018-12-05T04:21:44.208Z,100854.25
2018-12-05T04:24:48.945Z,100864.88
2018-12-05T04:27:53.455Z,100860.91
2018-12-05T04:30:57.963Z,100860.92
2018-12-05T04:34:02.519Z,100870.42
2018-12-05T04:37:07.151Z,100864.76
2018-12-05T04:40:11.813Z,100875.02
2018-12-05T04:43:16.338Z,100878.25
2018-12-05T04:46:20.833Z,100876.21
2018-12-05T04:49:25.392Z,100874.77
2018-12-05T04:52:29.986Z,100870.19
2018-12-05T04:55:34.565Z,100869.81
2018-12-05T04:58:39.297Z,100863.03
2018-12-05T05:01:43.981Z,100864.33
2018-12-05T05:04:48.586Z,100862.28
2018-12-05T05:07:53.252Z,100867.23
2018-12-05T05:10:57.964Z,100864.89
2018-12-05T05:14:02.517Z,100867.56
2018-12-05T05:17:07.030Z,100868.80
2018-12-05T05:20:12.027Z,100866.00
2018-12-05T05:23:16.802Z,100867.80
2018-12-05T05:26:21.544Z,100863.21
2018-12-05T05:29:26.076Z,100860.91
2018-12-05T05:32:30.571Z,100863.79
2018-12-05T05:35:35.093Z,100852.73
2018-12-05T05:38:39.661Z,100860.13
2018-12-05T05:41:44.201Z,100855.39
2018-12-05T05:44:48.750Z,100850.63
2018-12-05T05:47:53.271Z,100856.38
2018-12-05T05:50:57.864Z,100850.08
2018-12-05T05:54:02.425Z,100849.67
2018-12-05T05:57:06.973Z,100846.87
2018-12-05T06:00:11.612Z,100843.03
2018-12-05T06:03:16.248Z,100842.66
2018-12-05T06:06:21.044Z,100849.95
2018-12-05T06:09:25.571Z,100856.66
2018-12-05T06:12:30.264Z,100860.84
2018-12-05T06:15:34.838Z,100853.86
2018-12-05T06:18:39.534Z,100855.53
2018-12-05T06:21:44.182Z,100847.36
2018-12-05T06:24:48.714Z,100842.89
2018-12-05T06:27:55.608Z,100843.76
2018-12-05T06:31:00.154Z,100856.05
2018-12-05T06:34:04.807Z,100844.18
2018-12-05T06:37:09.294Z,100845.55
2018-12-05T06:40:13.813Z,100844.22
2018-12-05T06:43:18.501Z,100853.25
2018-12-05T06:46:23.253Z,100857.85
2018-12-05T06:49:27.848Z,100846.16
2018-12-05T06:52:32.330Z,100856.55
2018-12-05T06:55:39.256Z,100854.59
2018-12-05T06:58:43.524Z,100849.88
2018-12-05T07:01:48.141Z,100852.19
2018-12-05T07:04:52.744Z,100855.72
2018-12-05T07:07:57.275Z,100844.33
2018-12-05T07:11:01.972Z,100845.12
2018-12-05T07:14:07.220Z,100856.78
2018-12-05T07:17:11.857Z,100855.98
2018-12-05T07:20:16.395Z,100857.39
2018-12-05T07:23:20.933Z,100866.69
2018-12-05T07:26:25.513Z,100869.58
2018-12-05T07:29:30.063Z,100874.97
2018-12-05T07:32:34.592Z,100882.60
2018-12-05T07:35:39.273Z,100885.91
2018-12-05T07:38:43.849Z,100898.73
2018-12-05T07:41:48.459Z,100901.92
2018-12-05T07:44:52.899Z,100896.68
2018-12-05T07:47:57.481Z,100890.56
2018-12-05T07:51:02.098Z,100885.55
2018-12-05T07:54:06.750Z,100889.47
2018-12-05T07:57:11.284Z,100885.98
2018-12-05T08:00:15.912Z,100883.09
2018-12-05T08:03:20.554Z,100891.64
2018-12-05T08:06:25.088Z,100887.27
2018-12-05T08:09:29.710Z,100884.98
2018-12-05T08:12:34.337Z,100878.95
2018-12-05T08:15:38.907Z,100889.70
2018-12-05T08:18:43.517Z,100884.99
2018-12-05T08:21:48.261Z,100885.94
2018-12-05T08:24:52.833Z,100874.13
2018-12-05T08:27:57.404Z,100886.25
2018-12-05T08:31:02.034Z,100887.66
2018-12-05T08:34:06.699Z,100888.03
2018-12-05T08:37:11.224Z,100885.63
2018-12-05T08:40:15.857Z,100880.22
2018-12-05T08:43:20.428Z,100887.02
2018-12-05T08:46:24.953Z,100890.38
2018-12-05T08:49:29.549Z,100886.20
2018-12-05T08:52:34.266Z,100892.08
2018-12-05T08:55:38.873Z,100889.21
2018-12-05T08:58:43.441Z,100888.64
2018-12-05T09:01:47.976Z,100888.48
2018-12-05T09:04:52.552Z,100899.95
2018-12-05T09:07:57.082Z,100889.65
2018-12-05T09:11:01.668Z,100871.58
2018-12-05T09:14:06.406Z,100876.22
2018-12-05T09:17:10.879Z,100880.44
2018-12-05T09:20:15.674Z,100875.73
2018-12-05T09:23:20.189Z,100885.98
2018-12-05T09:26:24.773Z,100882.40
2018-12-05T09:29:29.335Z,100872.56
2018-12-05T09:32:33.979Z,100862.99
2018-12-05T09:35:38.545Z,100866.27
2018-12-05T09:38:43.188Z,100875.06
2018-12-05T09:41:47.793Z,100868.73
2018-12-05T09:44:52.402Z,100862.91
2018-12-05T09:47:57.880Z,100857.34
2018-12-05T09:51:02.542Z,100852.85
2018-12-05T09:54:07.269Z,100853.10
2018-12-05T09:57:11.821Z,100850.63
2018-12-05T10:00:16.404Z,100852.91
2018-12-05T10:03:20.917Z,100859.41
2018-12-05T10:06:25.505Z,100861.52
2018-12-05T10:09:29.976Z,100861.40
2018-12-05T10:12:34.669Z,100851.95
2018-12-05T10:15:39.087Z,100846.73
2018-12-05T10:18:43.713Z,100842.33
2018-12-05T10:21:48.273Z,100834.81
2018-12-05T10:24:52.892Z,100842.11
2018-12-05T10:27:57.547Z,100832.39
2018-12-05T10:31:02.074Z,100826.87
2018-12-05T10:34:06.652Z,100829.14
2018-12-05T10:37:11.285Z,100821.40
2018-12-05T10:40:16.395Z,100824.88
2018-12-05T10:43:21.045Z,100813.61
2018-12-05T10:46:25.677Z,100811.56
2018-12-05T10:49:30.296Z,100807.72
2018-12-05T10:52:34.794Z,100800.72
2018-12-05T10:55:39.549Z,100793.84
2018-12-05T10:58:44.188Z,100785.92
2018-12-05T11:03:57.884Z,100786.67
2018-12-05T11:08:08.455Z,100778.14
2018-12-05T11:11:18.243Z,100771.56
2018-12-05T11:14:27.946Z,100765.58
2018-12-05T11:17:37.847Z,100760.15
2018-12-05T11:20:47.633Z,100756.13
2018-12-05T11:23:57.430Z,100745.63
2018-12-05T11:27:02.307Z,100746.75
2018-12-05T11:30:08.550Z,100740.69
2018-12-05T11:33:13.225Z,100737.20
2018-12-05T11:36:17.813Z,100734.76
2018-12-05T11:39:22.350Z,100737.58
2018-12-05T11:42:26.919Z,100736.61
2018-12-05T11:45:31.632Z,100735.39
2018-12-05T11:48:36.318Z,100726.50
2018-12-05T11:51:40.886Z,100721.47
2018-12-05T11:54:45.508Z,100718.77
2018-12-05T11:57:50.169Z,100708.23
2018-12-05T12:00:54.999Z,100715.39
2018-12-05T12:03:59.763Z,100711.80
2018-12-05T12:07:04.402Z,100700.73
2018-12-05T12:10:09.303Z,100706.77
2018-12-05T12:13:13.828Z,100700.47
2018-12-05T12:16:19.060Z,100694.11
2018-12-05T12:19:23.687Z,100691.54
2018-12-05T12:22:28.239Z,100679.67
2018-12-05T12:25:33.013Z,100677.33
2018-12-05T12:28:37.588Z,100672.66
2018-12-05T12:31:42.152Z,100674.77
2018-12-05T12:34:46.892Z,100661.06
2018-12-05T12:37:51.528Z,100672.27
2018-12-05T12:40:56.365Z,100669.08
2018-12-05T12:44:00.887Z,100660.71
2018-12-05T12:47:05.518Z,100657.85
2018-12-05T12:50:10.337Z,100651.23
2018-12-05T12:53:14.835Z,100663.71
2018-12-05T12:56:19.350Z,100658.98
2018-12-05T12:59:23.929Z,100659.02
2018-12-05T13:02:28.466Z,100645.68
2018-12-05T13:05:33.027Z,100637.17
2018-12-05T13:08:37.571Z,100635.70
2018-12-05T13:11:42.091Z,100618.06
2018-12-05T13:14:46.666Z,100614.09
2018-12-05T13:17:51.180Z,100609.37
2018-12-05T13:20:55.799Z,100601.75
2018-12-05T13:24:00.492Z,100595.42
2018-12-05T13:27:05.066Z,100581.64
2018-12-05T13:30:22.172Z,100574.59
2018-12-05T13:33:26.768Z,100570.39
2018-12-05T13:36:31.552Z,100569.13
2018-12-05T13:39:36.237Z,100573.13
2018-12-05T13:42:40.819Z,100569.87
2018-12-05T13:45:45.559Z,100569.65
2018-12-05T13:48:50.121Z,100571.34
2018-12-05T13:51:54.712Z,100567.39
2018-12-05T13:54:59.249Z,100544.39
2018-12-05T13:58:03.805Z,100540.72
2018-12-05T14:01:08.450Z,100559.25
2018-12-05T14:04:12.966Z,100558.47
2018-12-05T14:07:17.566Z,100565.13
2018-12-05T14:10:22.194Z,100557.12
2018-12-05T14:13:26.769Z,100541.48
2018-12-05T14:16:31.311Z,100537.05
2018-12-05T14:19:35.819Z,100541.27
2018-12-05T14:22:40.368Z,100545.06
2018-12-05T14:25:44.908Z,100546.59
2018-12-05T14:28:49.430Z,100549.14
2018-12-05T14:31:54.393Z,100544.94
2018-12-05T14:34:59.041Z,100543.67
2018-12-05T14:38:03.674Z,100530.95
2018-12-05T14:41:08.458Z,100536.74
2018-12-05T14:44:13.003Z,100527.86
2018-12-05T14:47:17.642Z,100525.55
2018-12-05T14:50:22.181Z,100526.52
2018-12-05T14:53:26.688Z,100527.25
2018-12-05T14:56:31.342Z,100516.53
2018-12-05T14:59:35.909Z,100511.13
2018-12-05T15:02:40.502Z,100510.05
2018-12-05T15:05:45.132Z,100498.75
2018-12-05T15:08:49.746Z,100500.67
2018-12-05T15:11:54.332Z,100482.44
2018-12-05T15:14:58.903Z,100489.91
2018-12-05T15:18:03.737Z,100483.65
2018-12-05T15:21:08.298Z,100478.55
2018-12-05T15:24:12.961Z,100480.20
2018-12-05T15:27:17.552Z,100475.89
2018-12-05T15:30:22.268Z,100479.51
2018-12-05T15:33:26.949Z,100477.05
2018-12-05T15:36:31.625Z,100470.63
2018-12-05T15:39:36.183Z,100470.11
2018-12-05T15:42:40.944Z,100465.78
2018-12-05T15:45:45.615Z,100464.91
2018-12-05T15:48:50.316Z,100466.92
2018-12-05T15:51:55.165Z,100469.73
2018-12-05T15:54:59.669Z,100457.59
2018-12-05T15:58:04.370Z,100461.86
2018-12-05T16:01:09.117Z,100458.73
2018-12-05T16:04:13.706Z,100454.23
2018-12-05T16:07:18.337Z,100446.87
2018-12-05T16:10:22.933Z,100453.03
2018-12-05T16:13:27.554Z,100453.42
2018-12-05T16:16:32.208Z,100458.70
2018-12-05T16:19:36.801Z,100448.97
2018-12-05T16:22:41.335Z,100445.92
2018-12-05T16:25:45.963Z,100445.92
2018-12-05T16:28:50.621Z,100443.01
2018-12-05T16:31:55.251Z,100437.94
2018-12-05T16:35:00.567Z,100425.93
2018-12-05T16:38:05.098Z,100429.92
2018-12-05T16:41:09.684Z,100428.45
2018-12-05T16:44:14.239Z,100426.63
2018-12-05T16:47:18.864Z,100430.95
2018-12-05T16:50:23.508Z,100423.91
2018-12-05T16:53:28.068Z,100420.28
2018-12-05T16:56:32.600Z,100416.92
2018-12-05T16:59:37.250Z,100404.59
2018-12-05T17:02:41.885Z,100403.00
2018-12-05T17:05:46.502Z,100397.53
2018-12-05T17:08:51.042Z,100405.62
2018-12-05T17:11:55.642Z,100394.94
2018-12-05T17:18:14.938Z,100400.28
2018-12-05T17:21:19.430Z,100395.27
2018-12-05T17:24:24.801Z,100387.97
2018-12-05T17:27:29.380Z,100388.07
2018-12-05T17:30:33.974Z,100384.02
2018-12-05T17:33:38.624Z,100383.02
2018-12-05T17:36:43.225Z,100374.44
2018-12-05T17:39:47.800Z,100365.80
2018-12-05T17:42:52.383Z,100361.63
2018-12-05T17:45:57.054Z,100367.61
2018-12-05T17:49:03.006Z,100360.34
2018-12-05T17:52:08.855Z,100356.66
2018-12-05T17:55:13.633Z,100348.05
2018-12-05T17:58:18.130Z,100343.98
2018-12-05T18:01:22.950Z,100338.13
2018-12-05T18:04:27.524Z,100334.50
2018-12-05T18:07:32.234Z,100335.84
2018-12-05T18:10:36.774Z,100330.88
2018-12-05T18:13:41.447Z,100317.30
2018-12-05T18:16:46.055Z,100310.97
2018-12-05T18:19:50.671Z,100299.02
2018-12-05T18:22:55.305Z,100287.06
2018-12-05T18:26:00.028Z,100285.72
2018-12-05T18:29:04.802Z,100282.19
2018-12-05T18:32:09.346Z,100282.47
2018-12-05T18:35:14.078Z,100285.63
2018-12-05T18:38:18.670Z,100279.34
2018-12-05T18:44:37.726Z,100276.34
2018-12-05T18:47:42.251Z,100272.03
2018-12-05T18:50:46.819Z,100276.81
2018-12-05T18:53:51.509Z,100275.34
2018-12-05T18:56:56.056Z,100269.32
2018-12-05T19:00:01.504Z,100275.53
2018-12-05T19:03:07.494Z,100279.05
2018-12-05T19:06:12.242Z,100278.55
2018-12-05T19:09:16.779Z,100276.39
2018-12-05T19:12:21.727Z,100276.11
2018-12-05T19:15:26.594Z,100275.02
2018-12-05T19:18:31.151Z,100279.38
2018-12-05T19:21:35.805Z,100269.76
2018-12-05T19:24:40.433Z,100260.24
2018-12-05T19:27:45.138Z,100251.38
2018-12-05T19:30:49.928Z,100248.39
2018-12-05T19:33:58.735Z,100239.31
2018-12-05T19:37:03.676Z,100241.72
2018-12-05T19:40:08.755Z,100232.06
2018-12-05T19:43:13.450Z,100219.88
2018-12-05T19:46:18.079Z,100220.00
2018-12-05T19:49:22.744Z,100220.65
2018-12-05T19:52:27.422Z,100216.97
2018-12-05T19:55:32.048Z,100204.00
2018-12-05T19:58:37.631Z,100206.34
2018-12-05T20:01:42.568Z,100201.04
2018-12-05T20:04:47.247Z,100201.70
2018-12-05T20:07:51.835Z,100206.48
2018-12-05T20:10:56.578Z,100203.31
2018-12-05T20:14:01.205Z,100195.20
2018-12-05T20:17:06.467Z,100189.37
2018-12-05T20:20:11.607Z,100173.75
2018-12-05T20:23:16.721Z,100169.72
2018-12-05T20:26:21.492Z,100165.04
2018-12-05T20:29:26.036Z,100177.05
2018-12-05T20:32:30.729Z,100185.02
2018-12-05T20:35:35.390Z,100183.53
2018-12-05T20:38:40.842Z,100181.88
2018-12-05T20:41:45.686Z,100166.20
2018-12-05T20:44:50.210Z,100170.55
2018-12-05T20:47:54.895Z,100147.36
2018-12-05T20:50:59.524Z,100142.70
2018-12-05T20:54:04.196Z,100149.39
2018-12-05T20:57:08.726Z,100154.91
2018-12-05T21:00:13.970Z,100145.73
2018-12-05T21:03:18.620Z,100149.56
2018-12-05T21:06:23.372Z,100136.06
2018-12-05T21:09:27.969Z,100146.07
2018-12-05T21:12:32.600Z,100151.73
2018-12-05T21:15:37.342Z,100125.74
2018-12-05T21:18:41.954Z,100113.41
2018-12-05T21:21:46.576Z,100111.25
2018-12-05T21:24:51.149Z,100109.25
2018-12-05T21:27:55.715Z,100119.91
2018-12-05T21:31:00.443Z,100118.06
2018-12-05T21:34:05.166Z,100104.42
2018-12-05T21:37:09.792Z,100090.06
2018-12-05T21:40:14.279Z,100100.59
2018-12-05T21:43:18.894Z,100115.42
2018-12-05T21:46:23.586Z,100108.73
2018-12-05T21:49:28.180Z,100106.91
2018-12-05T21:52:32.827Z,100100.08
2018-12-05T21:55:38.322Z,100109.41
2018-12-05T21:58:42.992Z,100100.75
2018-12-05T22:01:47.680Z,100102.25
2018-12-05T22:04:52.290Z,100102.41
2018-12-05T22:07:57.010Z,100101.27
2018-12-05T22:11:01.539Z,100096.27
2018-12-05T22:14:06.110Z,100102.09
2018-12-05T22:17:10.948Z,100104.44
2018-12-05T22:20:15.507Z,100106.42
2018-12-05T22:23:20.271Z,100106.10
2018-12-05T22:26:24.850Z,100102.78
2018-12-05T22:29:29.449Z,100099.11
2018-12-05T22:32:33.975Z,100100.91
2018-12-05T22:35:38.568Z,100093.42
2018-12-05T22:38:43.192Z,100100.26
2018-12-05T22:41:47.862Z,100086.91
2018-12-05T22:44:53.151Z,100081.73
2018-12-05T22:47:57.784Z,100076.42
2018-12-05T22:51:02.554Z,100065.41
2018-12-05T22:54:07.095Z,100068.89
2018-12-05T22:57:16.593Z,100057.23
2018-12-05T23:00:26.069Z,100063.41
2018-12-05T23:03:30.691Z,100065.41
2018-12-05T23:06:35.926Z,100052.06
2018-12-05T23:09:40.385Z,100055.08
2018-12-05T23:12:45.101Z,100053.56
2018-12-05T23:15:49.766Z,100055.41
2018-12-05T23:18:54.487Z,100045.39
2018-12-05T23:21:59.073Z,100044.56
2018-12-05T23:25:03.838Z,100050.05
2018-12-05T23:28:08.600Z,100041.90
2018-12-05T23:31:13.209Z,100036.05
2018-12-05T23:34:17.783Z,100031.23
2018-12-05T23:37:22.453Z,100029.06
2018-12-05T23:40:27.517Z,100021.39
2018-12-05T23:43:32.915Z,100012.86
2018-12-05T23:46:37.421Z,100017.22
2018-12-05T23:49:42.131Z,100017.38
2018-12-05T23:52:46.730Z,100016.89
2018-12-05T23:55:51.275Z,100017.72
2018-12-05T23:58:55.799Z,100012.05
